sensor_id;sensor_type;location;lat;lon;timestamp;temperature;humidity
20885;DHT22;10602;48.000;9.654;2023-06-14T00:01:23;12.10;99.90
20885;DHT22;10602;48.000;9.654;2023-06-14T00:03:50;12.10;99.90
20885;DHT22;10602;48.000;9.654;2023-06-14T00:06:19;12.00;99.90
20885;DHT22;10602;48.000;9.654;2023-06-14T00:08:46;12.00;99.90
20885;DHT22;10602;48.000;9.654;2023-06-14T00:11:14;12.00;99.90
20885;DHT22;10602;48.000;9.654;2023-06-14T00:13:41;11.90;99.90
20885;DHT22;10602;48.000;9.654;2023-06-14T00:16:09;11.80;99.90
20885;DHT22;10602;48.000;9.654;2023-06-14T00:18:37;11.70;99.90
20885;DHT22;10602;48.000;9.654;2023-06-14T00:21:05;11.70;99.90
20885;DHT22;10602;48.000;9.654;2023-06-14T00:23:33;11.60;99.90
20885;DHT22;10602;48.000;9.654;2023-06-14T00:26:00;11.60;99.90
20885;DHT22;10602;48.000;9.654;2023-06-14T00:28:28;11.50;99.90
20885;DHT22;10602;48.000;9.654;2023-06-14T00:30:55;11.50;99.90
20885;DHT22;10602;48.000;9.654;2023-06-14T00:33:23;11.50;99.90
20885;DHT22;10602;48.000;9.654;2023-06-14T00:35:51;11.40;99.90
20885;DHT22;10602;48.000;9.654;2023-06-14T00:38:20;11.40;99.90
20885;DHT22;10602;48.000;9.654;2023-06-14T00:40:48;11.40;99.90
20885;DHT22;10602;48.000;9.654;2023-06-14T00:43:15;11.40;99.90
20885;DHT22;10602;48.000;9.654;2023-06-14T00:45:43;11.40;99.90
20885;DHT22;10602;48.000;9.654;2023-06-14T00:48:11;11.40;99.90
20885;DHT22;10602;48.000;9.654;2023-06-14T00:50:38;11.30;99.90
20885;DHT22;10602;48.000;9.654;2023-06-14T00:53:07;11.40;99.90
20885;DHT22;10602;48.000;9.654;2023-06-14T00:55:34;11.30;99.90
20885;DHT22;10602;48.000;9.654;2023-06-14T00:58:02;11.30;99.90
20885;DHT22;10602;48.000;9.654;2023-06-14T01:00:29;11.30;99.90
20885;DHT22;10602;48.000;9.654;2023-06-14T01:02:57;11.30;99.90
20885;DHT22;10602;48.000;9.654;2023-06-14T01:05:25;11.30;99.90
20885;DHT22;10602;48.000;9.654;2023-06-14T01:11:05;11.20;99.90
20885;DHT22;10602;48.000;9.654;2023-06-14T01:13:33;11.20;99.90
20885;DHT22;10602;48.000;9.654;2023-06-14T01:16:02;11.20;99.90
20885;DHT22;10602;48.000;9.654;2023-06-14T01:18:30;11.10;99.90
20885;DHT22;10602;48.000;9.654;2023-06-14T01:20:58;11.10;99.90
20885;DHT22;10602;48.000;9.654;2023-06-14T01:23:26;11.10;99.90
20885;DHT22;10602;48.000;9.654;2023-06-14T01:25:55;11.00;99.90
20885;DHT22;10602;48.000;9.654;2023-06-14T01:28:22;11.00;99.90
20885;DHT22;10602;48.000;9.654;2023-06-14T01:30:52;10.90;99.90
20885;DHT22;10602;48.000;9.654;2023-06-14T01:33:22;10.90;99.90
20885;DHT22;10602;48.000;9.654;2023-06-14T01:35:52;10.90;99.90
20885;DHT22;10602;48.000;9.654;2023-06-14T01:38:28;10.80;99.90
20885;DHT22;10602;48.000;9.654;2023-06-14T01:40:54;10.80;99.90
20885;DHT22;10602;48.000;9.654;2023-06-14T01:43:23;10.80;99.90
20885;DHT22;10602;48.000;9.654;2023-06-14T01:45:54;10.70;99.90
20885;DHT22;10602;48.000;9.654;2023-06-14T01:48:23;10.70;99.90
20885;DHT22;10602;48.000;9.654;2023-06-14T01:50:51;10.70;99.90
20885;DHT22;10602;48.000;9.654;2023-06-14T01:53:19;10.70;99.90
20885;DHT22;10602;48.000;9.654;2023-06-14T01:55:47;10.60;99.90
20885;DHT22;10602;48.000;9.654;2023-06-14T01:58:15;10.60;99.90
20885;DHT22;10602;48.000;9.654;2023-06-14T02:00:46;10.50;99.90
20885;DHT22;10602;48.000;9.654;2023-06-14T02:03:14;10.50;99.90
20885;DHT22;10602;48.000;9.654;2023-06-14T02:05:41;10.50;99.90
20885;DHT22;10602;48.000;9.654;2023-06-14T02:08:09;10.40;99.90
20885;DHT22;10602;48.000;9.654;2023-06-14T02:10:36;10.40;99.90
20885;DHT22;10602;48.000;9.654;2023-06-14T02:13:04;10.40;99.90
20885;DHT22;10602;48.000;9.654;2023-06-14T02:15:31;10.40;99.90
20885;DHT22;10602;48.000;9.654;2023-06-14T02:18:02;10.30;99.90
20885;DHT22;10602;48.000;9.654;2023-06-14T02:20:30;10.30;99.90
20885;DHT22;10602;48.000;9.654;2023-06-14T02:22:58;10.30;99.90
20885;DHT22;10602;48.000;9.654;2023-06-14T02:25:25;10.30;99.90
20885;DHT22;10602;48.000;9.654;2023-06-14T02:27:54;10.30;99.90
20885;DHT22;10602;48.000;9.654;2023-06-14T02:30:22;10.30;99.90
20885;DHT22;10602;48.000;9.654;2023-06-14T02:32:50;10.30;99.90
20885;DHT22;10602;48.000;9.654;2023-06-14T02:35:17;10.30;99.90
20885;DHT22;10602;48.000;9.654;2023-06-14T02:37:46;10.30;99.90
20885;DHT22;10602;48.000;9.654;2023-06-14T02:40:14;10.30;99.90
20885;DHT22;10602;48.000;9.654;2023-06-14T02:42:41;10.40;99.90
20885;DHT22;10602;48.000;9.654;2023-06-14T02:45:09;10.40;99.90
20885;DHT22;10602;48.000;9.654;2023-06-14T02:47:36;10.50;99.90
20885;DHT22;10602;48.000;9.654;2023-06-14T02:50:04;10.50;99.90
20885;DHT22;10602;48.000;9.654;2023-06-14T02:52:32;10.50;99.90
20885;DHT22;10602;48.000;9.654;2023-06-14T02:55:00;10.50;99.90
20885;DHT22;10602;48.000;9.654;2023-06-14T02:57:27;10.60;99.90
20885;DHT22;10602;48.000;9.654;2023-06-14T02:59:54;10.50;99.90
20885;DHT22;10602;48.000;9.654;2023-06-14T03:02:22;10.50;99.90
20885;DHT22;10602;48.000;9.654;2023-06-14T03:04:49;10.50;99.90
20885;DHT22;10602;48.000;9.654;2023-06-14T03:07:17;10.50;99.90
20885;DHT22;10602;48.000;9.654;2023-06-14T03:09:46;10.50;99.90
20885;DHT22;10602;48.000;9.654;2023-06-14T03:12:13;10.40;99.90
20885;DHT22;10602;48.000;9.654;2023-06-14T03:14:41;10.40;99.90
20885;DHT22;10602;48.000;9.654;2023-06-14T03:17:09;10.40;99.90
20885;DHT22;10602;48.000;9.654;2023-06-14T03:19:37;10.40;99.90
20885;DHT22;10602;48.000;9.654;2023-06-14T03:22:04;10.40;99.90
20885;DHT22;10602;48.000;9.654;2023-06-14T03:24:33;10.40;99.90
20885;DHT22;10602;48.000;9.654;2023-06-14T03:27:03;10.40;99.90
20885;DHT22;10602;48.000;9.654;2023-06-14T03:29:31;10.40;99.90
20885;DHT22;10602;48.000;9.654;2023-06-14T03:32:02;10.40;99.90
20885;DHT22;10602;48.000;9.654;2023-06-14T03:34:29;10.40;99.90
20885;DHT22;10602;48.000;9.654;2023-06-14T03:36:57;10.40;99.90
20885;DHT22;10602;48.000;9.654;2023-06-14T03:39:25;10.30;99.90
20885;DHT22;10602;48.000;9.654;2023-06-14T03:41:52;10.30;99.90
20885;DHT22;10602;48.000;9.654;2023-06-14T03:44:20;10.40;99.90
20885;DHT22;10602;48.000;9.654;2023-06-14T03:46:48;10.30;99.90
20885;DHT22;10602;48.000;9.654;2023-06-14T03:49:16;10.30;99.90
20885;DHT22;10602;48.000;9.654;2023-06-14T03:51:44;10.40;99.90
20885;DHT22;10602;48.000;9.654;2023-06-14T03:54:12;10.40;99.90
20885;DHT22;10602;48.000;9.654;2023-06-14T03:56:39;10.50;99.90
20885;DHT22;10602;48.000;9.654;2023-06-14T03:59:07;10.50;99.90
20885;DHT22;10602;48.000;9.654;2023-06-14T04:01:34;10.60;99.90
20885;DHT22;10602;48.000;9.654;2023-06-14T04:04:02;10.70;99.90
20885;DHT22;10602;48.000;9.654;2023-06-14T04:06:30;10.80;99.90
20885;DHT22;10602;48.000;9.654;2023-06-14T04:09:01;10.80;99.90
20885;DHT22;10602;48.000;9.654;2023-06-14T04:11:29;10.90;99.90
20885;DHT22;10602;48.000;9.654;2023-06-14T04:13:58;11.00;99.90
20885;DHT22;10602;48.000;9.654;2023-06-14T04:16:26;11.10;99.90
20885;DHT22;10602;48.000;9.654;2023-06-14T04:18:55;11.10;99.90
20885;DHT22;10602;48.000;9.654;2023-06-14T04:21:24;11.20;99.90
20885;DHT22;10602;48.000;9.654;2023-06-14T04:23:53;11.30;99.90
20885;DHT22;10602;48.000;9.654;2023-06-14T04:26:22;11.40;99.90
20885;DHT22;10602;48.000;9.654;2023-06-14T04:28:54;11.50;99.90
20885;DHT22;10602;48.000;9.654;2023-06-14T04:31:23;11.60;99.90
20885;DHT22;10602;48.000;9.654;2023-06-14T04:33:56;11.70;99.90
20885;DHT22;10602;48.000;9.654;2023-06-14T04:36:23;11.80;99.90
20885;DHT22;10602;48.000;9.654;2023-06-14T04:38:53;11.90;99.90
20885;DHT22;10602;48.000;9.654;2023-06-14T04:41:24;12.00;99.90
20885;DHT22;10602;48.000;9.654;2023-06-14T04:43:53;12.10;99.90
20885;DHT22;10602;48.000;9.654;2023-06-14T04:46:23;12.20;99.90
20885;DHT22;10602;48.000;9.654;2023-06-14T04:48:50;12.30;99.90
20885;DHT22;10602;48.000;9.654;2023-06-14T04:51:17;12.40;99.90
20885;DHT22;10602;48.000;9.654;2023-06-14T04:53:47;12.50;99.90
20885;DHT22;10602;48.000;9.654;2023-06-14T04:56:16;12.60;99.90
20885;DHT22;10602;48.000;9.654;2023-06-14T04:58:43;12.70;99.90
20885;DHT22;10602;48.000;9.654;2023-06-14T05:01:12;12.80;99.90
20885;DHT22;10602;48.000;9.654;2023-06-14T05:03:40;13.00;99.90
20885;DHT22;10602;48.000;9.654;2023-06-14T05:06:07;13.00;99.90
20885;DHT22;10602;48.000;9.654;2023-06-14T05:08:35;13.20;99.90
20885;DHT22;10602;48.000;9.654;2023-06-14T05:11:02;13.30;99.90
20885;DHT22;10602;48.000;9.654;2023-06-14T05:13:30;13.40;99.90
20885;DHT22;10602;48.000;9.654;2023-06-14T05:15:59;13.50;99.90
20885;DHT22;10602;48.000;9.654;2023-06-14T05:18:27;13.60;99.90
20885;DHT22;10602;48.000;9.654;2023-06-14T05:20:54;13.80;99.90
20885;DHT22;10602;48.000;9.654;2023-06-14T05:23:22;13.90;99.90
20885;DHT22;10602;48.000;9.654;2023-06-14T05:28:20;14.20;99.90
20885;DHT22;10602;48.000;9.654;2023-06-14T05:30:47;14.40;99.90
20885;DHT22;10602;48.000;9.654;2023-06-14T05:33:15;14.60;99.90
20885;DHT22;10602;48.000;9.654;2023-06-14T05:35:43;14.70;99.90
20885;DHT22;10602;48.000;9.654;2023-06-14T05:38:10;14.90;99.90
20885;DHT22;10602;48.000;9.654;2023-06-14T05:40:38;15.10;99.90
20885;DHT22;10602;48.000;9.654;2023-06-14T05:43:07;15.30;99.90
20885;DHT22;10602;48.000;9.654;2023-06-14T05:45:34;15.40;99.90
20885;DHT22;10602;48.000;9.654;2023-06-14T05:48:02;15.60;99.90
20885;DHT22;10602;48.000;9.654;2023-06-14T05:50:30;15.60;99.90
20885;DHT22;10602;48.000;9.654;2023-06-14T05:52:57;15.80;99.90
20885;DHT22;10602;48.000;9.654;2023-06-14T05:55:25;15.90;99.90
20885;DHT22;10602;48.000;9.654;2023-06-14T05:57:52;16.10;99.90
20885;DHT22;10602;48.000;9.654;2023-06-14T06:00:20;16.30;99.90
20885;DHT22;10602;48.000;9.654;2023-06-14T06:02:47;16.60;99.90
20885;DHT22;10602;48.000;9.654;2023-06-14T06:05:15;16.80;99.90
20885;DHT22;10602;48.000;9.654;2023-06-14T06:07:43;16.90;99.90
20885;DHT22;10602;48.000;9.654;2023-06-14T06:10:12;17.10;99.90
20885;DHT22;10602;48.000;9.654;2023-06-14T06:12:40;17.30;99.90
20885;DHT22;10602;48.000;9.654;2023-06-14T06:15:08;17.50;99.90
20885;DHT22;10602;48.000;9.654;2023-06-14T06:17:38;17.70;99.90
20885;DHT22;10602;48.000;9.654;2023-06-14T06:20:06;18.00;99.90
20885;DHT22;10602;48.000;9.654;2023-06-14T06:22:34;18.20;99.90
20885;DHT22;10602;48.000;9.654;2023-06-14T06:25:02;18.40;99.90
20885;DHT22;10602;48.000;9.654;2023-06-14T06:27:30;18.50;98.40
20885;DHT22;10602;48.000;9.654;2023-06-14T06:29:57;18.60;95.30
20885;DHT22;10602;48.000;9.654;2023-06-14T06:32:25;18.70;93.30
20885;DHT22;10602;48.000;9.654;2023-06-14T06:34:52;18.80;91.30
20885;DHT22;10602;48.000;9.654;2023-06-14T06:37:20;18.90;90.80
20885;DHT22;10602;48.000;9.654;2023-06-14T06:39:47;19.00;91.50
20885;DHT22;10602;48.000;9.654;2023-06-14T06:42:15;19.30;87.00
20885;DHT22;10602;48.000;9.654;2023-06-14T06:44:42;19.20;84.90
20885;DHT22;10602;48.000;9.654;2023-06-14T06:47:10;19.40;81.20
20885;DHT22;10602;48.000;9.654;2023-06-14T06:49:37;19.50;76.00
20885;DHT22;10602;48.000;9.654;2023-06-14T06:52:06;19.70;74.80
20885;DHT22;10602;48.000;9.654;2023-06-14T06:54:34;20.00;71.20
20885;DHT22;10602;48.000;9.654;2023-06-14T06:57:02;20.20;67.40
20885;DHT22;10602;48.000;9.654;2023-06-14T06:59:29;20.40;62.50
20885;DHT22;10602;48.000;9.654;2023-06-14T07:01:57;20.50;56.00
20885;DHT22;10602;48.000;9.654;2023-06-14T07:04:25;20.70;52.80
20885;DHT22;10602;48.000;9.654;2023-06-14T07:06:52;20.80;46.70
20885;DHT22;10602;48.000;9.654;2023-06-14T07:09:20;20.90;42.20
20885;DHT22;10602;48.000;9.654;2023-06-14T07:11:48;21.10;40.40
20885;DHT22;10602;48.000;9.654;2023-06-14T07:14:16;21.30;40.50
20885;DHT22;10602;48.000;9.654;2023-06-14T07:16:43;21.50;35.00
20885;DHT22;10602;48.000;9.654;2023-06-14T07:19:11;21.70;30.60
20885;DHT22;10602;48.000;9.654;2023-06-14T07:21:38;21.80;25.90
20885;DHT22;10602;48.000;9.654;2023-06-14T07:24:06;21.90;24.40
20885;DHT22;10602;48.000;9.654;2023-06-14T07:26:34;22.10;23.40
20885;DHT22;10602;48.000;9.654;2023-06-14T07:29:03;22.20;20.50
20885;DHT22;10602;48.000;9.654;2023-06-14T07:31:30;22.40;18.00
20885;DHT22;10602;48.000;9.654;2023-06-14T07:33:58;22.40;16.70
20885;DHT22;10602;48.000;9.654;2023-06-14T07:36:25;22.50;14.40
20885;DHT22;10602;48.000;9.654;2023-06-14T07:38:53;22.60;12.20
20885;DHT22;10602;48.000;9.654;2023-06-14T07:41:20;22.70;10.50
20885;DHT22;10602;48.000;9.654;2023-06-14T07:43:48;22.80;9.70
20885;DHT22;10602;48.000;9.654;2023-06-14T07:46:16;22.90;9.40
20885;DHT22;10602;48.000;9.654;2023-06-14T07:48:43;22.80;9.20
20885;DHT22;10602;48.000;9.654;2023-06-14T07:51:11;23.00;7.60
20885;DHT22;10602;48.000;9.654;2023-06-14T07:53:39;23.00;6.90
20885;DHT22;10602;48.000;9.654;2023-06-14T07:56:07;23.10;7.60
20885;DHT22;10602;48.000;9.654;2023-06-14T07:58:35;23.10;7.10
20885;DHT22;10602;48.000;9.654;2023-06-14T08:01:02;23.40;6.40
20885;DHT22;10602;48.000;9.654;2023-06-14T08:03:32;23.70;6.00
20885;DHT22;10602;48.000;9.654;2023-06-14T08:05:59;23.80;3.50
20885;DHT22;10602;48.000;9.654;2023-06-14T08:08:27;23.60;1.80
20885;DHT22;10602;48.000;9.654;2023-06-14T08:10:55;23.70;2.00
20885;DHT22;10602;48.000;9.654;2023-06-14T08:13:22;24.00;2.50
20885;DHT22;10602;48.000;9.654;2023-06-14T08:15:50;24.20;2.20
20885;DHT22;10602;48.000;9.654;2023-06-14T08:18:17;24.30;1.00
20885;DHT22;10602;48.000;9.654;2023-06-14T08:20:45;24.30;1.00
20885;DHT22;10602;48.000;9.654;2023-06-14T08:23:13;24.20;1.00
20885;DHT22;10602;48.000;9.654;2023-06-14T08:25:41;24.20;1.00
20885;DHT22;10602;48.000;9.654;2023-06-14T08:28:09;24.30;1.00
20885;DHT22;10602;48.000;9.654;2023-06-14T08:30:36;24.30;1.00
20885;DHT22;10602;48.000;9.654;2023-06-14T08:33:04;24.40;1.00
20885;DHT22;10602;48.000;9.654;2023-06-14T08:35:32;24.30;1.00
20885;DHT22;10602;48.000;9.654;2023-06-14T08:37:59;24.20;1.00
20885;DHT22;10602;48.000;9.654;2023-06-14T08:40:27;24.10;1.00
20885;DHT22;10602;48.000;9.654;2023-06-14T08:42:56;24.30;1.00
20885;DHT22;10602;48.000;9.654;2023-06-14T08:45:25;24.50;1.00
20885;DHT22;10602;48.000;9.654;2023-06-14T08:47:53;24.70;1.00
20885;DHT22;10602;48.000;9.654;2023-06-14T08:50:28;24.80;1.00
20885;DHT22;10602;48.000;9.654;2023-06-14T08:52:58;25.00;6.80
20885;DHT22;10602;48.000;9.654;2023-06-14T08:55:29;25.30;1.00
20885;DHT22;10602;48.000;9.654;2023-06-14T08:57:58;25.20;1.00
20885;DHT22;10602;48.000;9.654;2023-06-14T09:00:27;25.40;1.00
20885;DHT22;10602;48.000;9.654;2023-06-14T09:02:55;25.60;1.00
20885;DHT22;10602;48.000;9.654;2023-06-14T09:05:27;25.50;1.00
20885;DHT22;10602;48.000;9.654;2023-06-14T09:07:55;25.60;1.00
20885;DHT22;10602;48.000;9.654;2023-06-14T09:10:25;25.80;1.00
20885;DHT22;10602;48.000;9.654;2023-06-14T09:12:53;26.00;1.00
20885;DHT22;10602;48.000;9.654;2023-06-14T09:15:21;25.80;1.00
20885;DHT22;10602;48.000;9.654;2023-06-14T09:17:48;25.80;1.00
20885;DHT22;10602;48.000;9.654;2023-06-14T09:20:16;26.10;1.00
20885;DHT22;10602;48.000;9.654;2023-06-14T09:22:46;26.10;1.00
20885;DHT22;10602;48.000;9.654;2023-06-14T09:25:14;26.40;1.00
20885;DHT22;10602;48.000;9.654;2023-06-14T09:27:42;26.80;1.00
20885;DHT22;10602;48.000;9.654;2023-06-14T09:30:10;27.00;1.00
20885;DHT22;10602;48.000;9.654;2023-06-14T09:32:38;27.00;1.00
20885;DHT22;10602;48.000;9.654;2023-06-14T09:35:07;27.10;1.00
20885;DHT22;10602;48.000;9.654;2023-06-14T09:37:35;27.00;1.00
20885;DHT22;10602;48.000;9.654;2023-06-14T09:40:05;27.00;1.00
20885;DHT22;10602;48.000;9.654;2023-06-14T09:42:33;27.00;1.00
20885;DHT22;10602;48.000;9.654;2023-06-14T09:45:02;27.20;1.00
20885;DHT22;10602;48.000;9.654;2023-06-14T09:47:31;27.30;1.00
20885;DHT22;10602;48.000;9.654;2023-06-14T09:49:58;27.20;1.00
20885;DHT22;10602;48.000;9.654;2023-06-14T09:52:27;27.50;1.00
20885;DHT22;10602;48.000;9.654;2023-06-14T09:54:56;27.50;1.00
20885;DHT22;10602;48.000;9.654;2023-06-14T09:57:26;27.70;1.00
20885;DHT22;10602;48.000;9.654;2023-06-14T09:59:57;27.90;1.00
20885;DHT22;10602;48.000;9.654;2023-06-14T10:02:34;27.70;1.00
20885;DHT22;10602;48.000;9.654;2023-06-14T10:05:07;27.80;1.00
20885;DHT22;10602;48.000;9.654;2023-06-14T10:07:53;28.00;1.00
20885;DHT22;10602;48.000;9.654;2023-06-14T10:10:21;28.00;1.00
20885;DHT22;10602;48.000;9.654;2023-06-14T10:12:49;28.30;1.00
20885;DHT22;10602;48.000;9.654;2023-06-14T10:15:35;28.40;1.00
20885;DHT22;10602;48.000;9.654;2023-06-14T10:18:08;28.80;1.00
20885;DHT22;10602;48.000;9.654;2023-06-14T10:20:39;28.80;1.00
20885;DHT22;10602;48.000;9.654;2023-06-14T10:23:11;28.70;1.00
20885;DHT22;10602;48.000;9.654;2023-06-14T10:25:39;28.60;1.00
20885;DHT22;10602;48.000;9.654;2023-06-14T10:28:18;28.70;1.00
20885;DHT22;10602;48.000;9.654;2023-06-14T10:31:10;29.00;1.00
20885;DHT22;10602;48.000;9.654;2023-06-14T10:33:55;28.90;1.00
20885;DHT22;10602;48.000;9.654;2023-06-14T10:36:24;28.60;1.00
20885;DHT22;10602;48.000;9.654;2023-06-14T10:39:18;28.70;1.00
20885;DHT22;10602;48.000;9.654;2023-06-14T10:41:53;29.10;1.00
20885;DHT22;10602;48.000;9.654;2023-06-14T10:46:55;29.50;1.00
20885;DHT22;10602;48.000;9.654;2023-06-14T10:49:38;29.70;1.00
20885;DHT22;10602;48.000;9.654;2023-06-14T10:52:14;29.80;1.00
20885;DHT22;10602;48.000;9.654;2023-06-14T10:55:15;29.90;1.00
20885;DHT22;10602;48.000;9.654;2023-06-14T10:57:16;29.80;1.00
20885;DHT22;10602;48.000;9.654;2023-06-14T10:59:44;30.00;1.00
20885;DHT22;10602;48.000;9.654;2023-06-14T11:04:59;29.60;1.00
20885;DHT22;10602;48.000;9.654;2023-06-14T11:07:58;29.40;1.00
20885;DHT22;10602;48.000;9.654;2023-06-14T11:10:39;28.80;1.00
20885;DHT22;10602;48.000;9.654;2023-06-14T11:13:07;28.70;1.00
20885;DHT22;10602;48.000;9.654;2023-06-14T11:15:36;28.80;1.00
20885;DHT22;10602;48.000;9.654;2023-06-14T11:18:06;29.20;1.00
20885;DHT22;10602;48.000;9.654;2023-06-14T11:20:36;29.40;1.00
20885;DHT22;10602;48.000;9.654;2023-06-14T11:23:04;29.50;1.00
20885;DHT22;10602;48.000;9.654;2023-06-14T11:25:32;29.90;1.00
20885;DHT22;10602;48.000;9.654;2023-06-14T11:28:00;30.20;1.00
20885;DHT22;10602;48.000;9.654;2023-06-14T11:30:27;29.80;1.00
20885;DHT22;10602;48.000;9.654;2023-06-14T11:32:55;29.30;1.00
20885;DHT22;10602;48.000;9.654;2023-06-14T11:35:23;29.30;1.00
20885;DHT22;10602;48.000;9.654;2023-06-14T11:37:57;29.80;1.00
20885;DHT22;10602;48.000;9.654;2023-06-14T11:40:25;30.00;1.00
20885;DHT22;10602;48.000;9.654;2023-06-14T11:43:01;30.50;1.00
20885;DHT22;10602;48.000;9.654;2023-06-14T11:45:30;30.80;1.00
20885;DHT22;10602;48.000;9.654;2023-06-14T11:47:59;31.20;1.00
20885;DHT22;10602;48.000;9.654;2023-06-14T11:50:28;31.70;1.00
20885;DHT22;10602;48.000;9.654;2023-06-14T11:52:57;31.80;1.00
20885;DHT22;10602;48.000;9.654;2023-06-14T11:55:26;32.00;1.00
20885;DHT22;10602;48.000;9.654;2023-06-14T11:57:56;32.40;1.00
20885;DHT22;10602;48.000;9.654;2023-06-14T12:00:25;32.10;1.00
20885;DHT22;10602;48.000;9.654;2023-06-14T12:02:54;31.70;1.00
20885;DHT22;10602;48.000;9.654;2023-06-14T12:05:23;31.70;1.00
20885;DHT22;10602;48.000;9.654;2023-06-14T12:07:57;31.50;1.00
20885;DHT22;10602;48.000;9.654;2023-06-14T12:10:20;31.60;1.00
20885;DHT22;10602;48.000;9.654;2023-06-14T12:12:48;31.60;1.00
20885;DHT22;10602;48.000;9.654;2023-06-14T12:15:16;31.60;1.00
20885;DHT22;10602;48.000;9.654;2023-06-14T12:17:44;31.50;1.00
20885;DHT22;10602;48.000;9.654;2023-06-14T12:20:13;31.70;1.00
20885;DHT22;10602;48.000;9.654;2023-06-14T12:22:54;31.90;1.00
20885;DHT22;10602;48.000;9.654;2023-06-14T12:25:28;32.00;1.00
20885;DHT22;10602;48.000;9.654;2023-06-14T12:28:08;32.40;1.00
20885;DHT22;10602;48.000;9.654;2023-06-14T12:30:39;32.50;1.00
20885;DHT22;10602;48.000;9.654;2023-06-14T12:33:04;32.50;1.00
20885;DHT22;10602;48.000;9.654;2023-06-14T12:35:32;32.20;1.00
20885;DHT22;10602;48.000;9.654;2023-06-14T12:38:00;32.00;1.00
20885;DHT22;10602;48.000;9.654;2023-06-14T12:40:27;31.70;1.00
20885;DHT22;10602;48.000;9.654;2023-06-14T12:42:55;31.50;1.00
20885;DHT22;10602;48.000;9.654;2023-06-14T12:45:27;31.30;1.00
20885;DHT22;10602;48.000;9.654;2023-06-14T12:47:56;31.20;1.00
20885;DHT22;10602;48.000;9.654;2023-06-14T12:50:24;30.80;1.00
20885;DHT22;10602;48.000;9.654;2023-06-14T12:52:52;30.50;1.00
20885;DHT22;10602;48.000;9.654;2023-06-14T12:55:20;30.80;1.00
20885;DHT22;10602;48.000;9.654;2023-06-14T12:57:48;31.30;1.00
20885;DHT22;10602;48.000;9.654;2023-06-14T13:00:18;31.40;1.00
20885;DHT22;10602;48.000;9.654;2023-06-14T13:02:48;31.50;1.00
20885;DHT22;10602;48.000;9.654;2023-06-14T13:05:17;31.10;1.00
20885;DHT22;10602;48.000;9.654;2023-06-14T13:07:44;30.50;1.00
20885;DHT22;10602;48.000;9.654;2023-06-14T13:10:12;29.80;1.00
20885;DHT22;10602;48.000;9.654;2023-06-14T13:12:40;29.80;1.00
20885;DHT22;10602;48.000;9.654;2023-06-14T13:15:07;30.00;1.00
20885;DHT22;10602;48.000;9.654;2023-06-14T13:17:35;29.80;1.00
20885;DHT22;10602;48.000;9.654;2023-06-14T13:20:07;29.60;1.00
20885;DHT22;10602;48.000;9.654;2023-06-14T13:22:35;29.30;1.00
20885;DHT22;10602;48.000;9.654;2023-06-14T13:25:03;29.00;1.00
20885;DHT22;10602;48.000;9.654;2023-06-14T13:27:32;28.40;1.00
20885;DHT22;10602;48.000;9.654;2023-06-14T13:29:59;27.60;1.00
20885;DHT22;10602;48.000;9.654;2023-06-14T13:32:27;27.60;1.00
20885;DHT22;10602;48.000;9.654;2023-06-14T13:34:55;27.70;1.00
20885;DHT22;10602;48.000;9.654;2023-06-14T13:37:22;27.90;1.00
20885;DHT22;10602;48.000;9.654;2023-06-14T13:39:50;28.10;1.00
20885;DHT22;10602;48.000;9.654;2023-06-14T13:42:17;28.20;1.00
20885;DHT22;10602;48.000;9.654;2023-06-14T13:44:45;28.20;1.00
20885;DHT22;10602;48.000;9.654;2023-06-14T13:47:12;28.40;1.00
20885;DHT22;10602;48.000;9.654;2023-06-14T13:49:40;28.40;1.00
20885;DHT22;10602;48.000;9.654;2023-06-14T13:52:07;28.60;1.00
20885;DHT22;10602;48.000;9.654;2023-06-14T13:54:35;28.60;1.00
20885;DHT22;10602;48.000;9.654;2023-06-14T13:57:03;28.50;1.00
20885;DHT22;10602;48.000;9.654;2023-06-14T13:59:30;28.40;1.00
20885;DHT22;10602;48.000;9.654;2023-06-14T14:01:58;28.00;1.00
20885;DHT22;10602;48.000;9.654;2023-06-14T14:04:25;27.90;1.00
20885;DHT22;10602;48.000;9.654;2023-06-14T14:06:53;27.80;1.00
20885;DHT22;10602;48.000;9.654;2023-06-14T14:09:20;27.60;1.00
20885;DHT22;10602;48.000;9.654;2023-06-14T14:11:48;27.40;1.00
20885;DHT22;10602;48.000;9.654;2023-06-14T14:14:15;27.10;1.00
20885;DHT22;10602;48.000;9.654;2023-06-14T14:16:43;26.90;1.00
20885;DHT22;10602;48.000;9.654;2023-06-14T14:19:17;26.50;1.00
20885;DHT22;10602;48.000;9.654;2023-06-14T14:21:45;26.10;1.00
20885;DHT22;10602;48.000;9.654;2023-06-14T14:24:13;26.20;1.00
20885;DHT22;10602;48.000;9.654;2023-06-14T14:26:40;26.40;1.00
20885;DHT22;10602;48.000;9.654;2023-06-14T14:29:08;26.50;1.00
20885;DHT22;10602;48.000;9.654;2023-06-14T14:31:38;26.80;1.00
20885;DHT22;10602;48.000;9.654;2023-06-14T14:34:05;26.90;1.00
20885;DHT22;10602;48.000;9.654;2023-06-14T14:36:33;27.00;1.00
20885;DHT22;10602;48.000;9.654;2023-06-14T14:39:02;27.10;1.00
20885;DHT22;10602;48.000;9.654;2023-06-14T14:41:29;27.30;1.00
20885;DHT22;10602;48.000;9.654;2023-06-14T14:43:57;27.30;1.00
20885;DHT22;10602;48.000;9.654;2023-06-14T14:46:25;27.20;1.00
20885;DHT22;10602;48.000;9.654;2023-06-14T14:48:53;27.30;1.00
20885;DHT22;10602;48.000;9.654;2023-06-14T14:51:20;27.20;1.00
20885;DHT22;10602;48.000;9.654;2023-06-14T14:53:48;27.20;1.00
20885;DHT22;10602;48.000;9.654;2023-06-14T14:56:15;27.10;1.00
20885;DHT22;10602;48.000;9.654;2023-06-14T14:58:43;26.80;1.00
20885;DHT22;10602;48.000;9.654;2023-06-14T15:01:11;26.80;1.00
20885;DHT22;10602;48.000;9.654;2023-06-14T15:03:38;27.20;1.00
20885;DHT22;10602;48.000;9.654;2023-06-14T15:06:06;27.30;1.00
20885;DHT22;10602;48.000;9.654;2023-06-14T15:08:33;27.40;1.00
20885;DHT22;10602;48.000;9.654;2023-06-14T15:11:01;27.40;1.00
20885;DHT22;10602;48.000;9.654;2023-06-14T15:13:29;27.40;1.00
20885;DHT22;10602;48.000;9.654;2023-06-14T15:15:56;27.40;1.00
20885;DHT22;10602;48.000;9.654;2023-06-14T15:18:24;27.40;1.00
20885;DHT22;10602;48.000;9.654;2023-06-14T15:20:51;27.20;1.00
20885;DHT22;10602;48.000;9.654;2023-06-14T15:23:19;27.10;1.00
20885;DHT22;10602;48.000;9.654;2023-06-14T15:25:49;27.10;1.00
20885;DHT22;10602;48.000;9.654;2023-06-14T15:28:18;27.10;1.00
20885;DHT22;10602;48.000;9.654;2023-06-14T15:30:45;27.20;1.00
20885;DHT22;10602;48.000;9.654;2023-06-14T15:33:13;27.30;1.00
20885;DHT22;10602;48.000;9.654;2023-06-14T15:35:40;27.40;1.00
20885;DHT22;10602;48.000;9.654;2023-06-14T15:38:08;27.50;1.00
20885;DHT22;10602;48.000;9.654;2023-06-14T15:40:35;27.30;1.00
20885;DHT22;10602;48.000;9.654;2023-06-14T15:43:03;27.20;1.00
20885;DHT22;10602;48.000;9.654;2023-06-14T15:45:32;26.90;1.00
20885;DHT22;10602;48.000;9.654;2023-06-14T15:48:00;26.60;1.00
20885;DHT22;10602;48.000;9.654;2023-06-14T15:50:27;26.60;1.00
20885;DHT22;10602;48.000;9.654;2023-06-14T15:52:55;26.60;1.00
20885;DHT22;10602;48.000;9.654;2023-06-14T15:55:22;26.80;1.00
20885;DHT22;10602;48.000;9.654;2023-06-14T15:57:50;26.80;1.00